Time;durP1;ratioP1;P1;durP2;ratioP2;P2;SDS_P1;SDS_P2;PMS_P1;PMS_P2;Temp;Humidity;BMP_temperature;BMP_pressure;BME280_temperature;BME280_humidity;BME280_pressure;Samples;Min_cycle;Max_cycle;Signal;HPM_P1;HPM_P2
2022/08/02 00:01:34;;;;;;;4.32;2.03;;;;;;;17.10;78.16;100542.00;5090952;28;19946;-85
2022/08/02 00:04:00;;;;;;;;;;;;;;;17.00;79.38;100550.88;5092214;28;20110;-87
2022/08/02 00:06:25;;;;;;;4.75;2.05;;;;;;;16.99;79.31;100545.75;5094503;28;19962;-87
2022/08/02 00:08:52;;;;;;;;;;;;;;;17.00;78.19;100548.13;5094175;28;20059;-87
2022/08/02 00:11:18;;;;;;;4.80;2.17;;;;;;;17.01;77.73;100538.72;5092079;28;19934;-85
2022/08/02 00:13:43;;;;;;;;;;;;;;;16.97;77.90;100546.13;5091987;28;20056;-86
2022/08/02 00:16:08;;;;;;;5.17;2.20;;;;;;;16.88;78.09;100556.56;5071663;28;19967;-84
2022/08/02 00:18:34;;;;;;;;;;;;;;;16.88;77.87;100551.06;5076286;28;20321;-87
2022/08/02 00:20:59;;;;;;;6.63;2.37;;;;;;;16.82;77.26;100550.56;5073526;28;19916;-87
2022/08/02 00:23:24;;;;;;;;;;;;;;;16.84;77.16;100544.72;5073415;28;20644;-88
2022/08/02 00:25:50;;;;;;;5.73;2.33;;;;;;;16.99;76.02;100540.25;5073056;28;19979;-87
2022/08/02 00:28:15;;;;;;;;;;;;;;;17.03;76.42;100536.38;5073616;28;20251;-88
2022/08/02 00:30:40;;;;;;;4.57;1.50;;;;;;;17.13;75.53;100540.44;5073409;28;19943;-88
2022/08/02 00:33:07;;;;;;;;;;;;;;;17.34;75.25;100540.00;5055662;28;20285;-88
2022/08/02 00:35:32;;;;;;;5.80;2.20;;;;;;;17.38;76.10;100536.16;5073084;28;19916;-88
2022/08/02 00:37:58;;;;;;;5.35;2.30;;;;;;;17.37;75.86;100534.56;5073387;28;20088;-87
2022/08/02 00:40:23;;;;;;;;;;;;;;;17.43;76.68;100537.78;5074041;28;20093;-88
2022/08/02 00:43:00;;;;;;;4.38;2.13;;;;;;;17.22;77.32;100537.47;5072960;28;20015;-88
2022/08/02 00:45:25;;;;;;;6.30;2.05;;;;;;;17.01;78.03;100529.66;5073041;28;20024;-88
2022/08/02 00:47:51;;;;;;;;;;;;;;;16.88;78.12;100529.06;5073514;28;20043;-88
2022/08/02 00:50:16;;;;;;;5.57;2.10;;;;;;;16.99;78.54;100534.75;5073379;28;20314;-86
2022/08/02 00:52:41;;;;;;;;;;;;;;;16.80;78.85;100528.16;5073382;28;20135;-88
2022/08/02 00:55:07;;;;;;;5.83;2.03;;;;;;;16.89;79.00;100529.84;5072845;28;19912;-86
2022/08/02 00:57:32;;;;;;;;;;;;;;;17.18;78.41;100529.16;5073419;28;20266;-88
2022/08/02 00:59:58;;;;;;;4.30;1.93;;;;;;;17.21;78.63;100527.63;5073215;28;19909;-86
2022/08/02 01:02:23;;;;;;;;;;;;;;;16.98;79.58;100536.69;5073612;28;20251;-88
2022/08/02 01:04:48;;;;;;;4.13;2.20;;;;;;;16.88;79.96;100536.50;5054587;28;19916;-85
2022/08/02 01:07:14;;;;;;;;;;;;;;;16.77;79.88;100533.56;5076667;28;20037;-87
2022/08/02 01:09:43;;;;;;;4.35;1.95;;;;;;;16.66;79.87;100543.56;5074285;28;19916;-87
2022/08/02 01:12:09;;;;;;;5.75;1.98;;;;;;;16.61;79.69;100535.59;5072683;28;20120;-86
2022/08/02 01:14:35;;;;;;;;;;;;;;;16.60;80.13;100531.25;5073212;28;20111;-87
2022/08/02 01:17:14;;;;;;;6.63;2.03;;;;;;;16.47;80.23;100525.94;5072893;28;19959;-86
2022/08/02 01:19:52;;;;;;;4.00;1.65;;;;;;;16.31;80.62;100525.25;5072691;28;20055;-86
2022/08/02 01:22:36;;;;;;;4.50;1.90;;;;;;;16.33;80.98;100522.13;5057826;28;20025;-86
2022/08/02 01:25:10;;;;;;;4.57;2.08;;;;;;;16.26;81.31;100522.78;5076221;28;20033;-86
2022/08/02 01:27:49;;;;;;;4.85;1.90;;;;;;;16.35;80.70;100519.81;5075833;28;20090;-86
2022/08/02 01:30:16;;;;;;;5.93;2.30;;;;;;;16.17;81.13;100522.22;5076084;28;20029;-86
2022/08/02 01:32:47;;;;;;;5.15;1.65;;;;;;;16.27;80.93;100515.31;5075914;28;20379;-86
2022/08/02 01:35:18;;;;;;;5.35;2.10;;;;;;;16.18;81.25;100516.34;5075971;28;20035;-86
2022/08/02 01:38:16;;;;;;;5.10;2.05;;;;;;;16.12;81.16;100514.25;5058377;28;20020;-85
2022/08/02 01:40:44;;;;;;;4.82;2.08;;;;;;;15.99;81.76;100510.88;5041796;28;20076;-86
2022/08/02 01:43:11;;;;;;;5.05;1.95;;;;;;;15.93;81.89;100509.56;5075650;28;20043;-85
2022/08/02 01:45:39;;;;;;;4.18;1.95;;;;;;;15.81;82.33;100505.03;5075702;28;20529;-85
2022/08/02 01:48:07;;;;;;;4.30;1.95;;;;;;;15.82;82.91;100497.56;5075498;28;20067;-86
2022/08/02 01:50:35;;;;;;;5.45;1.90;;;;;;;15.90;82.48;100500.09;5057681;28;20024;-86
2022/08/02 01:53:08;;;;;;;5.20;2.05;;;;;;;15.71;83.86;100504.78;5075157;28;20033;-86
2022/08/02 01:55:44;;;;;;;3.30;1.60;;;;;;;15.77;83.80;100509.63;5075351;28;20383;-85
2022/08/02 01:58:13;;;;;;;5.75;1.88;;;;;;;15.79;83.54;100504.59;5075835;28;20037;-85
2022/08/02 02:00:40;;;;;;;5.82;1.80;;;;;;;15.76;83.15;100505.28;5075404;28;20072;-85
2022/08/02 02:03:13;;;;;;;4.38;1.95;;;;;;;15.76;83.39;100502.53;5075819;28;20111;-86
2022/08/02 02:05:39;;;;;;;6.03;2.10;;;;;;;15.60;83.96;100499.06;5076760;28;20128;-86
2022/08/02 02:08:07;;;;;;;4.13;1.90;;;;;;;15.45;85.01;100503.44;5075243;28;20040;-85
2022/08/02 02:10:34;;;;;;;6.10;2.13;;;;;;;15.45;85.25;100499.84;5075198;28;20020;-87
2022/08/02 02:13:09;;;;;;;4.30;2.00;;;;;;;15.37;85.58;100504.41;5075102;28;20048;-84
2022/08/02 02:15:40;;;;;;;4.63;2.13;;;;;;;15.37;85.84;100495.38;5075238;28;20029;-86
2022/08/02 02:18:07;;;;;;;5.32;2.38;;;;;;;15.36;86.02;100486.34;5074939;28;20029;-85
2022/08/02 02:20:33;;;;;;;6.13;1.70;;;;;;;15.28;86.25;100496.38;5075216;28;20031;-85
2022/08/02 02:22:58;;;;;;;5.20;2.22;;;;;;;15.24;86.40;100491.94;5074877;28;20029;-84
2022/08/02 02:25:24;;;;;;;4.88;2.00;;;;;;;15.12;86.71;100489.34;5074804;28;20467;-85
2022/08/02 02:27:53;;;;;;;;;;;;;;;15.27;86.06;100494.75;5057467;28;20047;-86
2022/08/02 02:30:19;;;;;;;3.85;2.08;;;;;;;15.37;85.81;100498.13;5075121;28;19912;-86
2022/08/02 02:32:49;;;;;;;6.13;2.30;;;;;;;15.36;86.22;100483.59;5074004;28;20031;-85
2022/08/02 02:35:16;;;;;;;4.55;1.98;;;;;;;15.30;86.08;100487.78;5074696;28;20028;-84
2022/08/02 02:37:43;;;;;;;3.97;1.95;;;;;;;15.44;85.98;100490.84;5074819;28;20021;-86
2022/08/02 02:40:10;;;;;;;4.45;2.17;;;;;;;15.30;86.56;100491.34;5074444;28;20392;-85
2022/08/02 02:42:36;;;;;;;6.85;2.38;;;;;;;15.17;87.30;100489.84;5074284;28;20028;-86
2022/08/02 02:45:03;;;;;;;7.70;1.95;;;;;;;15.05;87.73;100487.19;5074534;28;20032;-85
2022/08/02 02:47:31;;;;;;;4.40;2.03;;;;;;;15.06;87.90;100475.06;5074451;28;20032;-85
2022/08/02 02:49:57;;;;;;;4.30;2.08;;;;;;;15.05;88.21;100478.97;5074306;28;20043;-85
2022/08/02 02:52:24;;;;;;;4.45;2.30;;;;;;;15.00;88.54;100479.25;5074221;28;20060;-85
2022/08/02 02:54:50;;;;;;;5.20;2.10;;;;;;;14.92;88.91;100472.00;5074135;28;20464;-85
2022/08/02 02:57:16;;;;;;;;;;;;;;;14.80;89.51;100472.91;5074884;28;20037;-85
2022/08/02 02:59:41;;;;;;;4.70;2.05;;;;;;;14.76;89.67;100463.78;5073944;28;19931;-84
2022/08/02 03:02:09;;;;;;;6.05;2.38;;;;;;;14.75;90.05;100464.91;5074014;28;20361;-85
2022/08/02 03:04:36;;;;;;;5.68;2.50;;;;;;;14.70;89.87;100463.25;5073619;28;20052;-85
2022/08/02 03:07:01;;;;;;;5.32;1.90;;;;;;;14.68;89.10;100462.81;5074135;28;20025;-85
2022/08/02 03:09:27;;;;;;;4.05;2.10;;;;;;;14.72;88.69;100460.94;5073950;28;20094;-85
2022/08/02 03:11:53;;;;;;;;;;;;;;;14.81;88.31;100463.53;5074171;28;20064;-84
2022/08/02 03:14:19;;;;;;;6.40;2.30;;;;;;;14.81;87.98;100463.53;5074052;28;20326;-86
2022/08/02 03:16:46;;;;;;;;;;;;;;;14.79;88.28;100451.31;5074545;28;20035;-86
2022/08/02 03:19:11;;;;;;;6.05;2.75;;;;;;;14.81;88.20;100460.00;5074276;28;19962;-86
2022/08/02 03:21:36;;;;;;;;;;;;;;;14.74;88.62;100468.81;5056620;28;20090;-86
2022/08/02 03:24:02;;;;;;;6.57;2.50;;;;;;;14.72;88.68;100460.94;5074044;28;19912;-86
2022/08/02 03:26:27;;;;;;;;;;;;;;;14.80;88.23;100470.16;5080584;28;20032;-83
2022/08/02 03:28:52;;;;;;;4.10;1.97;;;;;;;14.90;87.68;100469.59;5086153;28;19908;-81
2022/08/02 03:31:18;;;;;;;;;;;;;;;14.95;87.73;100466.63;5075802;28;20029;-84
2022/08/02 03:33:44;;;;;;;5.77;2.30;;;;;;;15.01;87.02;100465.19;5074665;28;20356;-84
2022/08/02 03:36:13;;;;;;;4.82;2.10;;;;;;;15.04;86.96;100455.44;5074592;28;20271;-84
2022/08/02 03:38:41;;;;;;;5.90;2.42;;;;;;;14.97;87.36;100449.81;5075765;28;20039;-82
2022/08/02 03:41:09;;;;;;;5.00;2.05;;;;;;;14.89;87.43;100443.34;5073349;28;20115;-82
2022/08/02 03:43:36;;;;;;;5.35;2.35;;;;;;;14.88;87.46;100441.75;5072705;28;20020;-83
2022/08/02 03:46:03;;;;;;;4.28;1.98;;;;;;;14.98;87.58;100443.97;5073016;28;20108;-83
2022/08/02 03:48:31;;;;;;;6.47;2.15;;;;;;;15.01;87.25;100450.69;5073407;28;20094;-86
2022/08/02 03:50:57;;;;;;;4.63;2.13;;;;;;;15.05;86.96;100449.59;5073410;28;20028;-85
2022/08/02 03:53:24;;;;;;;5.18;2.25;;;;;;;15.09;87.01;100449.69;5073052;28;20078;-86
2022/08/02 03:55:49;;;;;;;7.97;2.33;;;;;;;15.00;86.97;100444.41;5073182;28;20090;-84
2022/08/02 03:58:22;;;;;;;6.28;1.88;;;;;;;14.95;87.51;100457.59;5074133;28;20036;-84
2022/08/02 04:00:48;;;;;;;6.55;3.05;;;;;;;14.90;87.73;100460.59;5073167;28;20415;-84
2022/08/02 04:03:14;;;;;;;5.28;2.45;;;;;;;14.89;87.93;100459.00;5055321;28;20029;-85
2022/08/02 04:05:40;;;;;;;7.68;2.80;;;;;;;14.94;87.81;100458.72;5073813;28;20094;-85
2022/08/02 04:08:05;;;;;;;5.30;2.10;;;;;;;14.84;88.23;100459.28;5073215;28;20036;-85
2022/08/02 04:11:29;;;;;;;;;;;;;;;14.77;88.36;100461.81;5073351;28;20090;-84
2022/08/02 04:13:16;;;;;;;4.95;2.50;;;;;;;14.71;88.75;100462.09;5072735;28;20420;-84
2022/08/02 04:15:42;;;;;;;4.50;2.25;;;;;;;14.71;88.88;100456.63;5072689;28;20029;-84
2022/08/02 04:18:08;;;;;;;5.45;2.10;;;;;;;14.68;89.12;100460.06;5073110;28;20124;-85
2022/08/02 04:20:35;;;;;;;6.88;2.75;;;;;;;14.82;88.83;100464.31;5055217;28;20024;-87
2022/08/02 04:23:05;;;;;;;7.22;2.45;;;;;;;14.95;88.24;100463.88;5073358;28;20043;-83
2022/08/02 04:25:32;;;;;;;4.55;2.30;;;;;;;14.81;88.93;100470.94;5073260;28;20138;-83
2022/08/02 04:27:59;;;;;;;7.32;1.98;;;;;;;14.78;88.55;100463.41;5054919;28;20143;-80
2022/08/02 04:30:25;;;;;;;7.57;2.50;;;;;;;14.70;89.40;100463.25;5072290;28;20036;-80
2022/08/02 04:32:51;;;;;;;5.25;2.47;;;;;;;14.65;89.71;100463.53;5072362;28;20024;-80
2022/08/02 04:35:16;;;;;;;6.75;2.58;;;;;;;14.95;89.09;100468.56;5072181;28;20029;-80
2022/08/02 04:37:43;;;;;;;4.30;2.05;;;;;;;15.04;88.75;100466.41;5072304;28;20448;-80
2022/08/02 04:40:10;;;;;;;4.65;2.15;;;;;;;15.15;87.50;100464.72;5054334;28;20537;-81
2022/08/02 04:42:36;;;;;;;4.47;2.17;;;;;;;14.99;88.78;100463.94;5072022;28;20029;-80
2022/08/02 04:45:02;;;;;;;5.85;2.58;;;;;;;15.03;88.65;100464.81;5072362;28;20462;-80
2022/08/02 04:47:27;;;;;;;;;;;;;;;15.13;88.32;100466.22;5072354;28;20397;-80
2022/08/02 04:49:53;;;;;;;8.43;3.00;;;;;;;15.56;86.93;100463.28;5072278;28;20318;-80
2022/08/02 04:52:19;;;;;;;;;;;;;;;15.61;85.87;100464.97;5072655;28;20108;-79
2022/08/02 04:54:44;;;;;;;6.53;2.60;;;;;;;15.63;86.09;100465.41;5054045;28;19916;-80
2022/08/02 04:59:53;;;;;;;7.32;2.50;;;;;;;15.52;87.21;100470.63;5075672;28;19974;-81
2022/08/02 05:02:18;;;;;;;4.90;2.45;;;;;;;15.64;86.46;100475.25;5075717;28;20036;-81
2022/08/02 05:04:44;;;;;;;;;;;;;;;15.55;87.47;100475.41;5075464;28;20488;-81
2022/08/02 05:07:09;;;;;;;6.43;3.07;;;;;;;15.67;86.83;100470.97;5057843;28;20504;-80
2022/08/02 05:09:34;;;;;;;;;;;;;;;15.92;85.39;100477.75;5076335;28;20610;-81
2022/08/02 05:12:00;;;;;;;6.63;2.63;;;;;;;15.91;85.49;100476.97;5075724;28;19991;-80
2022/08/02 05:14:25;;;;;;;;;;;;;;;15.80;85.83;100470.47;5076204;28;20274;-81
2022/08/02 05:16:50;;;;;;;5.33;2.70;;;;;;;15.72;86.21;100476.16;5075827;28;19963;-80
2022/08/02 05:19:15;;;;;;;;;;;;;;;15.81;86.48;100474.03;5075615;28;20094;-80
2022/08/02 05:21:41;;;;;;;6.03;2.60;;;;;;;15.93;85.35;100468.38;5075223;28;20006;-81
2022/08/02 05:24:06;;;;;;;;;;;;;;;16.03;85.33;100476.03;5075922;28;20036;-82
2022/08/02 05:26:31;;;;;;;6.00;2.35;;;;;;;16.15;84.63;100475.09;5075540;28;19913;-81
2022/08/02 05:28:56;;;;;;;;;;;;;;;16.10;84.77;100481.66;5075597;28;20039;-82
2022/08/02 05:31:22;;;;;;;6.25;2.53;;;;;;;16.15;85.04;100475.09;5075481;28;19995;-81
2022/08/02 05:33:47;;;;;;;;;;;;;;;16.24;84.81;100470.16;5075857;28;20039;-81
2022/08/02 05:36:12;;;;;;;5.13;2.57;;;;;;;16.33;84.51;100475.41;5075185;28;19923;-81
2022/08/02 05:38:38;;;;;;;;;;;;;;;16.38;84.46;100475.91;5075638;28;20043;-80
2022/08/02 05:41:06;;;;;;;8.83;2.77;;;;;;;16.40;84.50;100481.03;5074969;28;19916;-80
2022/08/02 05:43:32;;;;;;;7.28;2.70;;;;;;;16.36;84.71;100480.97;5075377;28;20032;-81
2022/08/02 05:45:57;;;;;;;;;;;;;;;16.43;84.60;100481.09;5075073;28;20035;-81
2022/08/02 05:48:23;;;;;;;7.23;3.20;;;;;;;16.46;84.44;100477.63;5074687;28;19916;-80
2022/08/02 05:50:52;;;;;;;;;;;;;;;16.44;84.58;100471.69;5075458;28;20055;-80
2022/08/02 05:53:27;;;;;;;4.28;2.60;;;;;;;16.49;84.61;100468.66;5074553;28;19908;-80
2022/08/02 05:56:08;;;;;;;7.00;2.70;;;;;;;16.50;84.72;100469.44;5056650;28;20452;-80
2022/08/02 05:58:49;;;;;;;5.38;2.95;;;;;;;16.66;84.22;100467.38;5074815;28;20123;-80
2022/08/02 06:01:23;;;;;;;9.43;2.80;;;;;;;16.79;84.40;100465.25;5056280;28;20039;-79
2022/08/02 06:03:56;;;;;;;5.88;2.42;;;;;;;16.90;83.51;100457.97;5074294;28;20024;-81
2022/08/02 06:06:24;;;;;;;6.07;2.83;;;;;;;16.95;83.46;100457.66;5074135;28;20481;-79
2022/08/02 06:08:54;;;;;;;8.43;3.40;;;;;;;17.03;83.37;100447.56;5056483;28;20198;-79
2022/08/02 06:11:26;;;;;;;5.75;2.88;;;;;;;17.12;83.31;100454.38;5072931;28;20028;-79
2022/08/02 06:13:53;;;;;;;7.28;2.90;;;;;;;17.13;83.28;100461.50;5055919;28;20135;-79
2022/08/02 06:16:18;;;;;;;5.90;3.20;;;;;;;17.34;82.89;100460.19;5073959;28;20032;-79
2022/08/02 06:18:44;;;;;;;;;;;;;;;17.44;82.71;100459.53;5074591;28;20415;-80
2022/08/02 06:21:09;;;;;;;7.68;2.97;;;;;;;17.74;81.35;100457.63;5074181;28;20011;-80
2022/08/02 06:23:40;;;;;;;;;;;;;;;17.87;80.75;100457.38;5074602;28;20021;-80
2022/08/02 06:26:07;;;;;;;5.05;2.33;;;;;;;17.97;80.53;100451.19;5074292;28;19994;-79
2022/08/02 06:28:39;;;;;;;9.60;3.30;;;;;;;18.20;79.73;100451.06;5074078;28;20037;-79
2022/08/02 06:31:05;;;;;;;5.80;2.33;;;;;;;18.38;78.90;100453.97;5055984;28;20082;-80
2022/08/02 06:33:31;;;;;;;6.95;2.58;;;;;;;18.55;78.58;100451.38;5055900;28;20071;-81
2022/08/02 06:36:06;;;;;;;4.55;2.53;;;;;;;19.15;75.95;100455.84;5073989;28;20048;-80
2022/08/02 06:38:38;;;;;;;4.63;2.15;;;;;;;19.75;73.57;100455.38;5073543;28;20530;-80
2022/08/02 06:41:06;;;;;;;4.75;2.40;;;;;;;20.08;72.00;100454.31;5073800;28;20048;-79
2022/08/02 06:43:49;;;;;;;9.85;3.17;;;;;;;20.30;70.37;100452.38;5073973;28;20124;-79
2022/08/02 06:46:14;;;;;;;5.03;2.30;;;;;;;20.52;69.88;100445.75;5073378;28;20039;-80
2022/08/02 06:48:40;;;;;;;4.32;2.25;;;;;;;20.65;68.52;100449.69;5073461;28;20139;-79
2022/08/02 06:51:05;;;;;;;5.32;2.53;;;;;;;20.56;68.51;100445.75;5055856;28;20098;-81
2022/08/02 06:53:31;;;;;;;4.35;2.13;;;;;;;21.02;66.40;100445.72;5073638;28;20032;-81
2022/08/02 06:55:57;;;;;;;7.38;2.38;;;;;;;21.16;65.74;100454.00;5073063;28;20445;-80
2022/08/02 06:58:22;;;;;;;5.25;2.60;;;;;;;20.80;66.89;100456.00;5073229;28;20082;-80
2022/08/02 07:00:48;;;;;;;6.07;2.42;;;;;;;20.91;66.40;100451.25;5055318;28;20032;-80
2022/08/02 07:03:13;;;;;;;6.68;2.55;;;;;;;21.09;65.74;100456.78;5072741;28;20036;-80
2022/08/02 07:05:40;;;;;;;4.03;2.03;;;;;;;21.17;65.22;100452.03;5072717;28;20121;-81
2022/08/02 07:08:06;;;;;;;4.95;2.50;;;;;;;20.91;66.65;100451.25;5073286;28;20040;-80
2022/08/02 07:10:31;;;;;;;5.30;2.70;;;;;;;21.42;65.25;100450.00;5073142;28;20040;-80
2022/08/02 07:12:57;;;;;;;5.47;2.53;;;;;;;21.57;64.79;100443.25;5072832;28;20452;-82
2022/08/02 07:15:22;;;;;;;5.50;2.63;;;;;;;21.55;64.69;100440.09;5072955;28;20020;-79
2022/08/02 07:17:47;;;;;;;5.00;2.58;;;;;;;21.58;64.72;100441.25;5073086;28;20116;-84
2022/08/02 07:20:13;;;;;;;5.40;2.80;;;;;;;21.60;64.06;100441.66;5072452;28;20055;-80
2022/08/02 07:22:39;;;;;;;5.13;2.45;;;;;;;21.48;63.65;100445.63;5073067;28;20078;-79
2022/08/02 07:25:05;;;;;;;7.40;2.72;;;;;;;21.35;63.55;100452.03;5073062;28;20036;-80
2022/08/02 07:27:31;;;;;;;5.95;2.42;;;;;;;21.15;64.32;100455.19;5073380;28;20032;-80
2022/08/02 07:29:57;;;;;;;8.57;3.08;;;;;;;21.06;63.73;100451.25;5055406;28;20408;-79
2022/08/02 07:32:26;;;;;;;6.03;2.70;;;;;;;21.21;63.43;100450.84;5072300;28;20032;-80
2022/08/02 07:34:53;;;;;;;6.22;2.40;;;;;;;21.19;63.52;100450.44;5073043;28;20055;-82
2022/08/02 07:37:24;;;;;;;8.07;2.92;;;;;;;21.16;61.68;100451.22;5055131;28;20039;-81
2022/08/02 07:39:49;;;;;;;6.38;2.30;;;;;;;21.25;63.02;100453.63;5072343;28;20400;-80
2022/08/02 07:42:15;;;;;;;6.60;2.10;;;;;;;21.34;63.32;100453.22;5054475;28;20031;-79
2022/08/02 07:44:40;;;;;;;5.75;2.67;;;;;;;21.61;61.22;100451.53;5054498;28;20063;-80
2022/08/02 07:47:05;;;;;;;6.35;2.78;;;;;;;21.69;60.30;100444.78;5072663;28;20033;-82
2022/08/02 07:49:31;;;;;;;5.10;2.13;;;;;;;21.76;60.09;100441.19;5072021;28;20526;-80
2022/08/02 07:51:57;;;;;;;4.28;1.83;;;;;;;21.75;59.97;100432.09;5072438;28;20383;-84
2022/08/02 07:54:22;;;;;;;8.90;2.22;;;;;;;;;;5072844;28;20448;-82
2022/08/02 07:56:48;;;;;;;5.30;2.10;;;;;;;21.81;59.87;100429.66;5083355;28;20036;-89
2022/08/02 07:59:13;;;;;;;5.82;2.55;;;;;;;22.14;59.03;100436.66;5082875;28;20032;-87
2022/08/02 08:01:40;;;;;;;4.25;1.90;;;;;;;21.99;58.12;100440.66;5065386;28;20024;-88
2022/08/02 08:04:05;;;;;;;5.35;2.05;;;;;;;21.96;58.41;100430.41;5065246;28;20068;-89
2022/08/02 08:06:31;;;;;;;5.05;1.80;;;;;;;22.10;54.62;100433.13;5087777;28;20047;-90
2022/08/02 08:08:57;;;;;;;5.25;1.95;;;;;;;22.21;55.12;100423.56;5087257;28;20032;-89
2022/08/02 08:11:23;;;;;;;4.38;2.20;;;;;;;21.99;56.23;100432.34;5079123;28;20035;-86
2022/08/02 08:13:49;;;;;;;3.53;1.60;;;;;;;22.23;56.41;100423.13;5084000;28;20033;-87
2022/08/02 08:16:14;;;;;;;4.90;1.80;;;;;;;22.42;55.89;100436.47;5085725;28;20096;-89
2022/08/02 08:18:39;;;;;;;4.57;1.60;;;;;;;22.40;57.36;100429.75;5083859;28;20086;-84
2022/08/02 08:21:05;;;;;;;3.88;1.60;;;;;;;22.37;54.85;100425.03;5084203;28;20158;-88
2022/08/02 08:23:31;;;;;;;4.30;1.83;;;;;;;22.52;53.95;100430.06;5081409;28;20032;-88
2022/08/02 08:25:56;;;;;;;5.18;1.38;;;;;;;22.63;53.61;100427.19;5082632;28;20367;-90
2022/08/02 08:28:21;;;;;;;3.42;1.80;;;;;;;22.66;51.78;100425.56;5078995;28;20079;-89
2022/08/02 08:30:47;;;;;;;3.08;1.40;;;;;;;22.66;52.51;100423.59;5079195;28;20419;-88
2022/08/02 08:33:12;;;;;;;3.35;1.38;;;;;;;22.46;51.89;100420.59;5081100;28;20067;-86
2022/08/02 08:35:38;;;;;;;3.85;1.30;;;;;;;22.70;52.70;100423.59;5066503;28;20539;-86
2022/08/02 08:38:04;;;;;;;4.20;1.40;;;;;;;22.81;50.59;100421.47;5083488;28;20111;-88
2022/08/02 08:40:30;;;;;;;4.00;1.55;;;;;;;22.86;51.33;100418.31;5083360;28;20460;-86
2022/08/02 08:42:55;;;;;;;3.33;1.40;;;;;;;22.88;50.48;100418.69;5082172;28;20043;-89
2022/08/02 08:45:21;;;;;;;2.20;1.00;;;;;;;22.89;51.10;100419.47;5082302;28;20031;-89
2022/08/02 08:47:52;;;;;;;5.25;1.60;;;;;;;22.97;51.00;100418.97;5080084;28;20062;-88
2022/08/02 08:50:23;;;;;;;4.85;1.67;;;;;;;23.05;51.52;100412.16;5062518;28;20487;-87
2022/08/02 08:53:00;;;;;;;3.38;1.67;;;;;;;23.04;51.87;100421.69;5083008;28;20029;-90
2022/08/02 08:55:27;;;;;;;3.60;1.50;;;;;;;23.05;52.41;100420.50;5067855;28;20493;-88
2022/08/02 08:57:54;;;;;;;2.72;1.27;;;;;;;23.08;52.92;100424.44;5064747;28;20036;-86
2022/08/02 09:00:19;;;;;;;4.10;1.30;;;;;;;23.09;53.29;100421.25;5081428;28;20028;-89
2022/08/02 09:02:45;;;;;;;2.90;1.30;;;;;;;23.01;53.42;100425.31;5084257;28;20025;-85
2022/08/02 09:05:12;;;;;;;8.55;2.55;;;;;;;23.16;53.76;100425.13;5096895;28;20040;-85
2022/08/02 09:07:37;;;;;;;3.50;1.63;;;;;;;23.28;53.96;100413.50;5079799;28;20029;-87
2022/08/02 09:10:37;;;;;;;5.20;1.92;;;;;;;23.39;53.94;100409.41;5078756;28;20135;-88
2022/08/02 09:13:16;;;;;;;3.47;1.50;;;;;;;23.56;54.26;100413.19;5078594;28;20096;-85
2022/08/02 09:15:44;;;;;;;3.17;1.55;;;;;;;23.54;54.38;100404.47;5090844;28;20052;-85
2022/08/02 09:18:11;;;;;;;3.72;1.48;;;;;;;23.51;54.41;100402.50;5079177;28;20136;-85
2022/08/02 09:20:59;;;;;;;4.60;1.73;;;;;;;23.52;54.31;100400.53;5082465;28;20024;-88
2022/08/02 09:23:26;;;;;;;4.35;1.80;;;;;;;23.56;55.09;100398.50;5085829;28;20440;-88
2022/08/02 09:25:57;;;;;;;4.60;2.00;;;;;;;23.83;54.07;100399.34;5083416;28;20159;-90
2022/08/02 09:28:31;;;;;;;4.93;1.60;;;;;;;23.92;54.19;100401.63;5085734;28;20028;-88
2022/08/02 09:31:02;;;;;;;4.53;1.90;;;;;;;24.00;54.23;100392.75;5084101;28;20124;-92
2022/08/02 09:33:27;;;;;;;4.53;1.80;;;;;;;23.99;53.64;100398.72;5082380;28;20071;-89
2022/08/02 09:36:04;;;;;;;4.15;1.95;;;;;;;23.91;54.22;100406.41;5089470;28;20032;-88
2022/08/02 09:38:31;;;;;;;3.35;1.80;;;;;;;23.98;53.46;100402.72;5083995;28;20088;-89
2022/08/02 09:40:57;;;;;;;4.28;2.10;;;;;;;23.98;53.96;100400.72;5083867;28;20067;-88
2022/08/02 09:43:40;;;;;;;5.50;2.05;;;;;;;24.25;53.97;100408.28;5077928;28;20533;-88
2022/08/02 09:46:18;;;;;;;5.47;2.15;;;;;;;24.20;53.74;100406.00;5083285;28;20025;-88
2022/08/02 09:48:56;;;;;;;3.70;2.00;;;;;;;24.09;53.94;100408.91;5081024;28;20025;-80
2022/08/02 09:51:35;;;;;;;5.07;2.40;;;;;;;23.76;54.77;100398.66;5066114;28;20123;-90
2022/08/02 09:54:07;;;;;;;4.20;2.15;;;;;;;23.86;55.52;100397.75;5084666;28;20039;-86
2022/08/02 09:56:49;;;;;;;4.40;2.30;;;;;;;24.02;55.10;100403.47;5079474;28;20722;-92
2022/08/02 09:59:17;;;;;;;3.50;1.65;;;;;;;24.07;54.19;100397.44;5060136;28;20028;-89
2022/08/02 10:01:45;;;;;;;4.15;2.08;;;;;;;24.08;54.63;100403.78;5079788;28;20032;-89
2022/08/02 10:04:12;;;;;;;4.15;2.40;;;;;;;24.17;53.95;100404.81;5079149;28;20062;-90
2022/08/02 10:06:39;;;;;;;4.22;2.20;;;;;;;24.20;54.41;100401.22;5078907;28;20143;-88
2022/08/02 10:09:06;;;;;;;5.82;1.95;;;;;;;24.31;54.59;100395.50;5079716;28;20048;-89
2022/08/02 10:11:33;;;;;;;5.05;2.50;;;;;;;24.43;53.46;100394.13;5082498;28;20111;-88
2022/08/02 10:13:59;;;;;;;7.70;2.20;;;;;;;24.48;53.69;100393.63;5080433;28;20032;-89
2022/08/02 10:16:25;;;;;;;4.38;2.45;;;;;;;24.35;53.38;100399.00;5088300;28;20060;-88
2022/08/02 10:18:55;;;;;;;4.13;2.00;;;;;;;24.53;53.42;100404.31;5072768;28;20096;-90
2022/08/02 10:21:20;;;;;;;3.53;2.10;;;;;;;24.29;53.39;100404.28;5084902;28;20119;-88
2022/08/02 10:23:49;;;;;;;4.03;2.20;;;;;;;24.15;53.82;100401.66;5065761;28;20052;-85
2022/08/02 10:26:18;;;;;;;5.78;1.95;;;;;;;24.22;53.81;100398.00;5078899;28;20058;-87
2022/08/02 10:28:46;;;;;;;4.35;2.10;;;;;;;24.18;53.93;100397.25;5078718;28;20055;-87
2022/08/02 10:31:16;;;;;;;4.68;1.80;;;;;;;24.34;53.34;100394.66;5083439;28;20039;-90
2022/08/02 10:33:43;;;;;;;4.18;1.40;;;;;;;24.56;53.18;100392.31;5093304;28;20067;-92
2022/08/02 10:36:10;;;;;;;3.47;1.80;;;;;;;24.51;51.94;100392.78;5083383;28;20051;-88
2022/08/02 10:38:36;;;;;;;4.22;2.15;;;;;;;24.58;51.98;100387.13;5085918;28;20025;-88
2022/08/02 10:41:01;;;;;;;3.78;1.83;;;;;;;24.63;52.28;100377.50;5087293;28;20032;-93
2022/08/02 10:43:35;;;;;;;3.17;1.52;;;;;;;24.73;52.53;100376.53;5087515;28;20029;-88
2022/08/02 10:46:33;;;;;;;3.75;1.95;;;;;;;24.77;52.21;100374.47;5064288;28;20119;-90
2022/08/02 10:49:07;;;;;;;6.10;2.15;;;;;;;24.76;51.51;100365.31;5080282;28;20036;-90
2022/08/02 10:52:00;;;;;;;5.30;1.50;;;;;;;24.83;52.09;100358.81;5082472;28;20035;-91
2022/08/02 10:54:31;;;;;;;3.90;1.85;;;;;;;24.75;52.42;100374.09;5061526;28;20039;-91
2022/08/02 10:56:58;;;;;;;3.72;1.90;;;;;;;24.86;52.39;100374.69;5079361;28;20166;-89
2022/08/02 10:59:28;;;;;;;3.80;1.92;;;;;;;24.88;52.01;100373.06;5079120;28;20032;-85
2022/08/02 11:02:03;;;;;;;3.85;1.90;;;;;;;24.84;52.39;100369.53;5080656;28;20032;-89
2022/08/02 11:04:54;;;;;;;4.45;1.90;;;;;;;24.92;52.04;100364.63;5079910;28;20058;-90
2022/08/02 11:07:31;;;;;;;5.00;2.25;;;;;;;24.95;51.97;100369.34;5083212;28;20051;-86
2022/08/02 11:09:59;;;;;;;4.60;2.17;;;;;;;24.95;51.83;100365.78;5081675;28;20021;-90
2022/08/02 11:12:26;;;;;;;4.13;2.03;;;;;;;25.02;52.38;100360.88;5080132;28;20024;-88
2022/08/02 11:15:00;;;;;;;3.65;1.88;;;;;;;25.29;51.68;100363.53;5079521;28;20036;-91
2022/08/02 11:17:28;;;;;;;3.30;1.60;;;;;;;25.50;50.72;100368.66;5079963;28;20033;-87
2022/08/02 11:20:11;;;;;;;3.15;1.50;;;;;;;25.22;49.87;100363.69;5082170;28;20072;-84
2022/08/02 11:22:42;;;;;;;3.45;1.50;;;;;;;25.46;50.70;100351.22;5076530;28;20131;-87
2022/08/02 11:25:23;;;;;;;2.85;1.20;;;;;;;25.74;48.92;100346.28;5077263;28;20112;-87
2022/08/02 11:27:48;;;;;;;2.63;1.23;;;;;;;25.76;48.53;100344.63;5076734;28;20032;-87
2022/08/02 11:30:15;;;;;;;2.80;1.23;;;;;;;25.83;47.67;100346.47;5075710;28;20047;-82
2022/08/02 11:32:40;;;;;;;2.65;1.15;;;;;;;25.95;47.38;100343.00;5075912;28;20042;-87
2022/08/02 11:35:06;;;;;;;3.35;1.00;;;;;;;25.70;46.09;100348.38;5073757;28;20036;-83
2022/08/02 11:37:36;;;;;;;3.33;1.00;;;;;;;25.84;47.22;100350.81;5075223;28;20353;-85
2022/08/02 11:40:07;;;;;;;2.75;1.20;;;;;;;25.92;46.22;100354.25;5075285;28;20396;-85
2022/08/02 11:42:41;;;;;;;2.70;1.20;;;;;;;25.93;46.81;100355.81;5075579;28;20055;-84